Time;durP1;ratioP1;P1;durP2;ratioP2;P2;SDS_P1;SDS_P2;PMS_P1;PMS_P2;Temp;Humidity;BMP_temperature;BMP_pressure;BME280_temperature;BME280_humidity;BME280_pressure;Samples;Min_cycle;Max_cycle;Signal;HPM_P1;HPM_P2
2021/05/25 00:02:57;;;;;;;20.42;18.23;;;23.30;57.70;;;;;;4798624;54;21546;-39
2021/05/25 00:07:59;;;;;;;21.52;18.33;;;23.30;57.70;;;;;;4808445;54;21509;-38
2021/05/25 00:13:00;;;;;;;20.05;17.85;;;23.30;57.70;;;;;;4820996;54;21008;-40
2021/05/25 00:18:03;;;;;;;18.23;16.23;;;23.30;57.70;;;;;;4797414;54;21010;-37
2021/05/25 00:23:04;;;;;;;19.02;17.02;;;23.30;57.70;;;;;;4818528;54;21830;-40
2021/05/25 00:28:05;;;;;;;19.48;17.48;;;23.30;57.70;;;;;;4794489;54;21002;-37
2021/05/25 00:33:05;;;;;;;17.83;15.98;;;23.30;57.70;;;;;;4794431;54;21083;-40
2021/05/25 00:38:09;;;;;;;18.73;16.37;;;23.30;57.80;;;;;;4812400;54;21375;-39
2021/05/25 00:43:10;;;;;;;18.75;15.90;;;23.30;57.70;;;;;;4858394;54;21015;-30
2021/05/25 00:48:10;;;;;;;18.95;16.95;;;23.30;57.70;;;;;;4794540;58;21146;-35
2021/05/25 00:53:11;;;;;;;16.98;15.20;;;23.30;57.70;;;;;;4804047;54;20983;-37
2021/05/25 00:58:12;;;;;;;18.10;15.75;;;23.30;57.70;;;;;;4794666;58;21517;-40
2021/05/25 01:03:19;;;;;;;18.90;16.83;;;23.30;57.70;;;;;;4834546;54;21043;-35
2021/05/25 01:08:21;;;;;;;17.87;16.08;;;23.30;57.70;;;;;;4794517;58;21066;-38
2021/05/25 01:13:23;;;;;;;16.25;14.60;;;23.30;57.70;;;;;;4794986;55;21493;-38
2021/05/25 01:18:24;;;;;;;17.30;15.50;;;23.30;57.70;;;;;;4808031;54;21600;-37
2021/05/25 01:23:25;;;;;;;16.70;14.75;;;23.30;57.70;;;;;;4848115;54;21128;-39
2021/05/25 01:28:26;;;;;;;17.90;16.00;;;23.30;57.70;;;;;;4828938;54;21007;-37
2021/05/25 01:33:30;;;;;;;18.05;15.38;;;23.30;57.80;;;;;;4808829;54;21023;-39
2021/05/25 01:38:31;;;;;;;16.95;14.98;;;23.30;58.30;;;;;;4804574;54;21058;-35
2021/05/25 01:43:32;;;;;;;16.52;14.82;;;23.30;57.60;;;;;;4803477;54;21126;-48
2021/05/25 01:48:33;;;;;;;16.40;14.68;;;23.30;57.70;;;;;;4810489;54;21034;-33
2021/05/25 01:53:37;;;;;;;16.30;14.60;;;23.30;57.70;;;;;;4804552;54;21533;-36
2021/05/25 01:58:37;;;;;;;15.93;14.10;;;23.30;57.60;;;;;;4794418;58;20992;-36
2021/05/25 02:03:40;;;;;;;17.50;15.45;;;23.30;57.60;;;;;;4809593;54;20999;-40
2021/05/25 02:08:41;;;;;;;17.58;14.80;;;23.30;57.70;;;;;;4846874;54;21011;-38
2021/05/25 02:13:41;;;;;;;16.52;14.80;;;23.30;57.70;;;;;;4816965;54;21003;-40
2021/05/25 02:18:47;;;;;;;15.02;13.52;;;23.30;57.70;;;;;;4799259;54;21975;-41
2021/05/25 02:23:50;;;;;;;15.68;13.30;;;23.30;57.70;;;;;;4820254;54;21126;-38
2021/05/25 02:28:50;;;;;;;15.20;13.68;;;23.30;57.70;;;;;;4831351;54;21512;-36
2021/05/25 02:33:51;;;;;;;15.18;13.57;;;23.30;57.70;;;;;;4794725;54;21202;-37
2021/05/25 02:38:52;;;;;;;16.25;14.18;;;23.30;57.70;;;;;;4828067;54;21023;-36
2021/05/25 02:43:54;;;;;;;14.85;13.25;;;23.30;57.60;;;;;;4839526;54;21038;-37
2021/05/25 02:48:57;;;;;;;14.68;13.07;;;23.30;57.70;;;;;;4794865;58;21126;-41
2021/05/25 02:53:58;;;;;;;13.75;12.32;;;23.30;57.60;;;;;;4833191;54;21177;-38
2021/05/25 02:58:59;;;;;;;15.23;13.50;;;23.30;57.70;;;;;;4794963;54;21850;-37
2021/05/25 03:04:00;;;;;;;14.68;13.07;;;23.30;57.60;;;;;;4818620;54;22281;-38
2021/05/25 03:09:02;;;;;;;14.70;13.18;;;23.30;57.60;;;;;;4794092;58;22032;-39
2021/05/25 03:14:03;;;;;;;14.50;13.00;;;23.30;57.70;;;;;;4794833;54;21314;-40
2021/05/25 03:19:05;;;;;;;14.73;13.15;;;23.30;57.60;;;;;;4808524;54;21019;-39
2021/05/25 03:24:06;;;;;;;13.80;12.32;;;23.30;57.60;;;;;;4795237;54;21027;-37
2021/05/25 03:29:07;;;;;;;14.70;13.20;;;23.30;57.60;;;;;;4794346;58;21014;-37
2021/05/25 03:34:08;;;;;;;15.55;13.52;;;23.30;57.60;;;;;;4822455;54;21094;-35
2021/05/25 03:39:09;;;;;;;13.95;12.45;;;23.30;58.30;;;;;;4814466;54;21019;-37
2021/05/25 03:44:13;;;;;;;13.82;12.30;;;23.30;57.60;;;;;;4823050;54;21513;-35
2021/05/25 03:49:14;;;;;;;13.10;11.65;;;23.30;57.60;;;;;;4795283;58;21007;-41
2021/05/25 03:54:33;;;;;;;13.45;12.05;;;23.30;57.60;;;;;;4800704;54;21027;-35
2021/05/25 03:59:34;;;;;;;13.80;12.40;;;23.20;57.60;;;;;;4821492;54;21557;-41
2021/05/25 04:04:34;;;;;;;14.10;12.57;;;23.30;57.60;;;;;;4793491;58;21086;-40
2021/05/25 04:09:35;;;;;;;12.93;11.50;;;23.30;57.60;;;;;;4794306;54;21011;-38
2021/05/25 04:14:36;;;;;;;13.30;11.88;;;23.30;57.60;;;;;;4814845;54;21454;-45
2021/05/25 04:19:37;;;;;;;12.88;11.48;;;23.30;57.70;;;;;;4807395;54;20995;-40
2021/05/25 04:24:38;;;;;;;13.88;12.00;;;23.30;57.70;;;;;;4809087;54;21007;-36
2021/05/25 04:29:38;;;;;;;13.90;12.23;;;23.30;57.60;;;;;;4806638;54;21051;-39
2021/05/25 04:34:39;;;;;;;13.45;12.05;;;23.30;57.70;;;;;;4794528;54;21569;-39
2021/05/25 04:39:40;;;;;;;13.60;11.80;;;23.30;58.50;;;;;;4793998;58;21078;-39
2021/05/25 04:44:41;;;;;;;12.82;11.50;;;23.30;57.90;;;;;;4840172;54;21078;-37
2021/05/25 04:49:42;;;;;;;12.93;11.55;;;23.30;57.90;;;;;;4794477;58;21003;-39
2021/05/25 04:54:43;;;;;;;13.20;11.73;;;23.30;57.90;;;;;;4802229;54;21461;-38
2021/05/25 04:59:43;;;;;;;15.60;12.27;;;23.30;57.90;;;;;;4803563;54;21019;-44
2021/05/25 05:04:44;;;;;;;14.70;11.10;;;23.30;57.90;;;;;;4817939;54;21015;-40
2021/05/25 05:09:45;;;;;;;15.95;11.75;;;23.30;57.90;;;;;;4847907;54;21007;-34
2021/05/25 05:14:46;;;;;;;11.85;10.48;;;23.20;57.80;;;;;;4795327;54;21058;-37
2021/05/25 05:19:47;;;;;;;13.00;11.60;;;23.30;57.90;;;;;;4865084;54;21019;-39
2021/05/25 05:24:48;;;;;;;13.77;11.48;;;23.30;57.90;;;;;;4793437;58;21104;-39
2021/05/25 05:29:49;;;;;;;14.20;12.10;;;23.30;57.90;;;;;;4820612;54;21086;-37
2021/05/25 05:34:50;;;;;;;15.50;12.43;;;23.30;58.00;;;;;;4798016;54;21047;-36
2021/05/25 05:39:51;;;;;;;14.27;11.40;;;23.20;57.80;;;;;;4806549;54;21033;-40
2021/05/25 05:44:52;;;;;;;13.32;11.63;;;23.20;57.80;;;;;;4794032;54;22157;-38
2021/05/25 05:49:53;;;;;;;12.68;11.07;;;23.20;57.80;;;;;;4818225;54;21126;-34
2021/05/25 05:54:54;;;;;;;13.13;11.60;;;23.20;57.80;;;;;;4794642;58;21525;-42
2021/05/25 05:59:55;;;;;;;15.35;12.15;;;23.20;57.80;;;;;;4808730;54;21457;-46
2021/05/25 06:04:55;;;;;;;14.50;12.27;;;23.20;57.80;;;;;;4794050;55;21102;-41
2021/05/25 06:09:58;;;;;;;12.05;10.77;;;23.20;57.80;;;;;;4795826;54;21074;-43
2021/05/25 06:14:59;;;;;;;14.63;11.85;;;23.20;57.70;;;;;;4803908;54;21605;-38
2021/05/25 06:20:03;;;;;;;15.15;11.75;;;23.20;57.80;;;;;;4794309;58;21078;-37
2021/05/25 06:25:06;;;;;;;12.98;11.05;;;23.20;57.70;;;;;;4839108;54;20995;-41
2021/05/25 06:30:09;;;;;;;13.50;11.27;;;23.20;57.70;;;;;;4825640;54;22215;-38
2021/05/25 06:35:10;;;;;;;12.98;11.35;;;23.20;57.70;;;;;;4793987;58;21015;-40
2021/05/25 06:40:12;;;;;;;13.00;11.00;;;23.20;58.30;;;;;;4794920;58;21790;-38
2021/05/25 06:45:14;;;;;;;12.40;11.10;;;23.20;57.70;;;;;;4809585;54;20995;-40
2021/05/25 06:50:15;;;;;;;12.15;10.70;;;23.20;57.70;;;;;;4804270;54;21070;-42
2021/05/25 06:55:16;;;;;;;11.68;10.48;;;23.20;57.70;;;;;;4796018;54;21043;-39
2021/05/25 07:00:18;;;;;;;12.75;11.00;;;23.20;57.60;;;;;;4812780;54;21019;-39
2021/05/25 07:05:19;;;;;;;14.87;11.98;;;23.20;57.70;;;;;;4837014;54;21577;-32
2021/05/25 07:10:20;;;;;;;15.60;10.38;;;23.20;57.80;;;;;;4814207;54;21090;-32
2021/05/25 07:15:21;;;;;;;12.25;10.55;;;23.30;57.90;;;;;;4810698;54;20983;-46
2021/05/25 07:20:22;;;;;;;12.52;10.40;;;23.30;58.00;;;;;;4829509;54;20991;-40
2021/05/25 07:25:26;;;;;;;13.13;10.70;;;23.40;58.20;;;;;;4817840;54;21481;-43
2021/05/25 07:30:27;;;;;;;13.00;10.55;;;23.40;58.20;;;;;;4802280;54;21031;-40
2021/05/25 07:35:28;;;;;;;12.75;10.93;;;23.50;58.30;;;;;;4851745;54;21014;-39
2021/05/25 07:40:28;;;;;;;13.90;11.05;;;23.50;58.40;;;;;;4793649;58;21113;-40
2021/05/25 07:45:29;;;;;;;13.30;11.10;;;23.60;58.50;;;;;;4814637;54;21103;-36
2021/05/25 07:50:30;;;;;;;14.98;11.80;;;23.60;58.50;;;;;;4810530;54;21472;-39
2021/05/25 07:55:32;;;;;;;16.27;11.82;;;23.60;58.50;;;;;;4841967;54;21937;-46
2021/05/25 08:00:33;;;;;;;20.65;14.77;;;23.60;58.50;;;;;;4833035;54;21016;-39
2021/05/25 08:05:34;;;;;;;26.48;18.67;;;23.60;58.30;;;;;;4790447;58;21621;-35
2021/05/25 08:10:36;;;;;;;34.20;22.30;;;23.60;58.30;;;;;;4804624;54;21063;-37
2021/05/25 08:15:39;;;;;;;40.10;28.45;;;23.70;58.40;;;;;;4793256;58;21095;-37
2021/05/25 08:20:40;;;;;;;41.47;29.15;;;23.70;58.50;;;;;;4793196;58;21589;-40
2021/05/25 08:25:43;;;;;;;45.47;30.80;;;23.70;58.70;;;;;;4831944;54;21027;-37
2021/05/25 08:30:44;;;;;;;43.95;31.27;;;23.70;59.20;;;;;;4805270;54;21050;-36
2021/05/25 08:35:46;;;;;;;40.20;29.73;;;23.70;59.00;;;;;;4795739;54;21529;-38
2021/05/25 08:40:49;;;;;;;63.55;46.25;;;23.70;59.00;;;;;;4802576;54;21006;-39
2021/05/25 08:45:50;;;;;;;113.93;94.07;;;23.70;59.10;;;;;;4793844;54;21046;-39
2021/05/25 08:50:56;;;;;;;116.68;98.55;;;23.70;59.40;;;;;;4829212;54;21564;-48
2021/05/25 08:55:57;;;;;;;105.07;86.53;;;23.70;59.50;;;;;;4795034;54;21003;-39
2021/05/25 09:00:58;;;;;;;93.85;75.45;;;23.70;60.20;;;;;;4796739;54;21549;-38
2021/05/25 09:06:07;;;;;;;95.45;74.68;;;23.80;59.80;;;;;;4792571;58;21079;-37
2021/05/25 09:11:10;;;;;;;94.40;70.28;;;23.80;59.80;;;;;;4807474;54;21537;-33
2021/05/25 09:16:11;;;;;;;95.95;71.22;;;23.80;59.90;;;;;;4793139;58;21466;-38
2021/05/25 09:21:29;;;;;;;92.53;71.80;;;23.80;59.80;;;;;;4812415;54;21007;-38
2021/05/25 09:26:40;;;;;;;94.18;66.90;;;23.80;59.80;;;;;;4792986;58;21019;-36
2021/05/25 09:31:47;;;;;;;92.95;68.47;;;23.80;60.00;;;;;;4799926;54;21509;-41
2021/05/25 09:36:59;;;;;;;88.12;66.75;;;23.90;60.00;;;;;;4794049;58;21768;-37
2021/05/25 09:42:05;;;;;;;74.95;56.70;;;23.90;59.90;;;;;;4802796;54;21984;-37
2021/05/25 09:47:06;;;;;;;72.10;53.45;;;23.90;59.70;;;;;;4804546;54;21058;-39
2021/05/25 09:52:12;;;;;;;66.15;50.12;;;23.90;59.20;;;;;;4815671;54;20971;-36
2021/05/25 09:57:13;;;;;;;69.00;50.40;;;24.00;58.70;;;;;;4850412;54;21483;-37
2021/05/25 10:02:22;;;;;;;67.78;49.83;;;24.00;58.20;;;;;;4793654;58;21118;-38
2021/05/25 10:07:24;;;;;;;68.12;47.67;;;23.90;57.70;;;;;;4795232;54;21022;-40
2021/05/25 10:12:30;;;;;;;64.00;46.37;;;24.00;57.30;;;;;;4809568;54;21031;-37
2021/05/25 10:18:08;;;;;;;65.75;46.00;;;24.00;57.10;;;;;;4827916;54;20964;-36
2021/05/25 10:23:10;;;;;;;69.05;48.05;;;24.00;56.90;;;;;;4833702;54;21027;-35
2021/05/25 10:28:13;;;;;;;68.90;47.13;;;24.00;56.50;;;;;;4793248;58;21126;-39
2021/05/25 10:33:36;;;;;;;66.22;46.13;;;24.00;56.20;;;;;;4793145;58;21027;-44
2021/05/25 10:38:56;;;;;;;69.55;49.00;;;24.00;56.10;;;;;;4793896;58;21521;-35
2021/05/25 10:43:58;;;;;;;70.18;47.58;;;24.10;56.70;;;;;;4816033;54;21676;-38
2021/05/25 10:49:15;;;;;;;68.40;50.00;;;24.10;56.70;;;;;;4793680;58;21513;-36
2021/05/25 10:54:30;;;;;;;63.58;47.62;;;24.10;56.60;;;;;;4801327;54;21517;-35
2021/05/25 11:00:17;;;;;;;68.90;48.53;;;24.10;56.60;;;;;;4799778;54;21442;-36
2021/05/25 11:06:30;;;;;;;66.65;48.05;;;24.10;56.50;;;;;;4813353;54;21011;-37
2021/05/25 11:11:31;;;;;;;61.63;43.83;;;24.20;56.40;;;;;;4836412;54;21517;-38
2021/05/25 11:16:38;;;;;;;61.50;46.40;;;24.20;56.00;;;;;;4848402;54;21093;-38
2021/05/25 11:22:02;;;;;;;65.22;45.67;;;24.30;55.60;;;;;;4804611;54;21568;-37
2021/05/25 11:27:54;;;;;;;61.05;43.45;;;24.20;55.70;;;;;;4824976;54;21552;-47
2021/05/25 11:32:56;;;;;;;58.60;39.20;;;24.20;56.10;;;;;;4803235;54;21055;-36
2021/05/25 11:38:00;;;;;;;57.10;38.90;;;24.20;56.30;;;;;;4793292;55;21489;-39
2021/05/25 11:43:01;;;;;;;51.83;37.65;;;24.20;56.70;;;;;;4835709;54;21584;-42
2021/05/25 11:48:04;;;;;;;51.00;37.53;;;24.10;57.30;;;;;;4842700;54;21026;-42
2021/05/25 11:53:05;;;;;;;48.97;36.45;;;24.10;57.60;;;;;;4807705;54;21038;-40
2021/05/25 11:58:06;;;;;;;46.33;36.55;;;24.10;58.40;;;;;;4814234;54;21564;-40
2021/05/25 12:03:11;;;;;;;44.00;35.10;;;24.10;58.00;;;;;;4829196;54;21481;-36
2021/05/25 12:08:12;;;;;;;48.13;35.63;;;24.10;58.20;;;;;;4793333;58;21164;-43
2021/05/25 12:13:15;;;;;;;47.03;33.80;;;24.10;58.40;;;;;;4826770;54;21011;-41
2021/05/25 12:18:19;;;;;;;43.05;33.92;;;24.10;58.60;;;;;;4796549;54;21461;-32
2021/05/25 12:23:25;;;;;;;45.67;34.58;;;24.10;58.90;;;;;;4824091;54;21588;-38
2021/05/25 12:28:38;;;;;;;43.40;32.63;;;24.20;59.10;;;;;;4799806;54;20995;-39
2021/05/25 12:33:52;;;;;;;44.45;32.92;;;24.20;59.30;;;;;;4819813;54;21663;-35
2021/05/25 12:38:57;;;;;;;47.38;33.10;;;24.20;59.40;;;;;;4794587;54;21031;-38
2021/05/25 12:44:30;;;;;;;45.20;32.85;;;24.30;59.60;;;;;;4793035;58;21419;-39
2021/05/25 12:49:51;;;;;;;40.90;31.92;;;24.30;59.70;;;;;;4793841;58;20999;-37
2021/05/25 12:55:12;;;;;;;43.45;33.13;;;24.30;59.90;;;;;;4806158;54;21557;-38
2021/05/25 13:00:15;;;;;;;40.15;31.80;;;24.30;60.00;;;;;;4793792;58;21463;-38
2021/05/25 13:05:22;;;;;;;38.70;30.77;;;24.40;60.20;;;;;;4818567;54;21132;-38
2021/05/25 13:10:35;;;;;;;41.70;31.27;;;24.40;60.30;;;;;;4837250;54;21517;-39
2021/05/25 13:15:38;;;;;;;40.17;30.90;;;24.40;60.50;;;;;;4810223;54;21422;-38
2021/05/25 13:20:43;;;;;;;39.70;30.92;;;24.40;60.40;;;;;;4794265;58;21545;-38
2021/05/25 13:26:13;;;;;;;39.17;31.73;;;24.50;60.70;;;;;;4849088;54;21059;-39
2021/05/25 13:31:36;;;;;;;34.40;29.20;;;24.50;60.80;;;;;;4817770;54;21524;-38
2021/05/25 13:36:38;;;;;;;40.70;29.83;;;24.50;60.80;;;;;;4867544;54;20959;-39
2021/05/25 13:41:39;;;;;;;35.50;30.30;;;24.50;61.00;;;;;;4850479;54;21462;-39
2021/05/25 13:46:40;;;;;;;37.50;31.48;;;24.50;61.10;;;;;;4837126;54;20996;-37
2021/05/25 13:51:44;;;;;;;37.03;31.12;;;24.50;61.10;;;;;;4815551;54;21000;-39
2021/05/25 13:56:51;;;;;;;39.70;30.75;;;24.50;61.90;;;;;;4795025;54;20979;-39
2021/05/25 14:01:52;;;;;;;37.47;30.92;;;24.50;61.40;;;;;;4823007;54;22354;-39
2021/05/25 14:06:53;;;;;;;41.42;31.08;;;24.60;61.50;;;;;;4807906;54;21007;-38
2021/05/25 14:11:57;;;;;;;36.95;30.20;;;24.60;61.50;;;;;;4810481;54;21513;-37
2021/05/25 14:16:58;;;;;;;39.90;30.52;;;24.60;61.60;;;;;;4809383;54;21039;-39
2021/05/25 14:21:59;;;;;;;38.05;30.05;;;24.60;61.60;;;;;;4814159;54;21011;-36
2021/05/25 14:26:59;;;;;;;36.42;29.45;;;24.60;61.70;;;;;;4790949;58;21071;-35
2021/05/25 14:32:00;;;;;;;34.28;28.45;;;24.60;61.70;;;;;;4797405;54;21036;-46
2021/05/25 14:37:01;;;;;;;37.83;28.77;;;24.60;62.20;;;;;;4810977;54;20999;-37
2021/05/25 14:42:05;;;;;;;37.83;29.15;;;24.60;61.60;;;;;;4857069;54;21470;-38
2021/05/25 14:47:06;;;;;;;34.97;28.00;;;24.50;61.60;;;;;;4794208;58;21011;-39
2021/05/25 14:52:07;;;;;;;35.03;28.10;;;24.50;61.60;;;;;;4811370;54;21042;-36
2021/05/25 14:57:08;;;;;;;34.15;28.35;;;24.50;62.10;;;;;;4812287;54;21380;-35
2021/05/25 15:02:14;;;;;;;33.97;29.17;;;24.50;61.60;;;;;;4793591;58;21478;-39
2021/05/25 15:07:23;;;;;;;36.95;29.35;;;24.50;61.80;;;;;;4800621;54;21497;-41
2021/05/25 15:12:24;;;;;;;39.60;29.95;;;24.50;61.70;;;;;;4807977;54;21596;-36
2021/05/25 15:17:25;;;;;;;32.97;29.10;;;24.40;61.70;;;;;;4794596;55;20987;-36
2021/05/25 15:22:26;;;;;;;33.05;28.75;;;24.30;61.60;;;;;;4818150;54;21003;-37
2021/05/25 15:27:26;;;;;;;35.45;29.35;;;24.30;62.40;;;;;;4795687;54;20995;-38
2021/05/25 15:32:27;;;;;;;35.22;29.23;;;24.30;61.70;;;;;;4804593;54;21038;-35
2021/05/25 15:37:28;;;;;;;36.85;29.00;;;24.30;61.70;;;;;;4819235;54;21485;-40
2021/05/25 15:42:30;;;;;;;35.17;29.20;;;24.20;61.70;;;;;;4819897;54;21400;-40
2021/05/25 15:47:31;;;;;;;36.13;29.70;;;24.20;61.70;;;;;;4794347;54;21000;-34
2021/05/25 15:52:32;;;;;;;34.03;29.98;;;24.10;61.60;;;;;;4818562;54;20979;-36
2021/05/25 15:57:33;;;;;;;36.72;30.37;;;24.10;61.70;;;;;;4860637;54;20984;-40
2021/05/25 16:02:33;;;;;;;33.70;28.45;;;24.10;61.60;;;;;;4797807;54;21066;-36
2021/05/25 16:07:34;;;;;;;37.72;31.20;;;24.10;61.60;;;;;;4816007;54;21026;-38
2021/05/25 16:12:35;;;;;;;36.97;30.30;;;24.10;61.60;;;;;;4795073;54;20983;-40
2021/05/25 16:17:37;;;;;;;35.85;29.77;;;24.10;61.60;;;;;;4801909;54;21057;-40
2021/05/25 16:22:38;;;;;;;32.20;28.15;;;24.00;61.50;;;;;;4794325;54;21166;-40
2021/05/25 16:27:39;;;;;;;31.80;27.77;;;24.00;61.50;;;;;;4795573;54;21082;-41
2021/05/25 16:32:40;;;;;;;36.33;30.02;;;24.00;61.50;;;;;;4820556;54;21522;-36
2021/05/25 16:37:41;;;;;;;36.15;28.65;;;24.00;61.40;;;;;;4798088;54;21043;-39
2021/05/25 16:42:42;;;;;;;34.53;29.40;;;24.00;61.40;;;;;;4810049;54;21027;-39
2021/05/25 16:47:45;;;;;;;35.22;28.35;;;23.90;61.40;;;;;;4798372;54;21540;-39
2021/05/25 16:52:47;;;;;;;33.05;28.23;;;23.90;61.30;;;;;;4794801;58;21475;-33
2021/05/25 16:57:48;;;;;;;34.30;28.92;;;23.90;61.30;;;;;;4804814;54;21438;-38
2021/05/25 17:03:44;;;;;;;32.30;28.55;;;23.90;61.30;;;;;;4796949;54;21469;-39
2021/05/25 17:22:16;;;;;;;34.47;29.83;;;23.90;61.20;;;;;;4794447;54;21062;-39
2021/05/25 17:27:17;;;;;;;32.67;27.62;;;23.90;61.20;;;;;;4799863;54;21019;-41
2021/05/25 17:32:18;;;;;;;34.92;29.27;;;23.90;61.20;;;;;;4794709;54;21002;-40
2021/05/25 17:37:19;;;;;;;33.67;28.20;;;23.90;61.10;;;;;;4799197;54;21047;-40
2021/05/25 17:42:20;;;;;;;33.85;28.92;;;23.90;61.10;;;;;;4795880;54;21469;-38
2021/05/25 17:47:21;;;;;;;30.42;26.23;;;23.90;61.50;;;;;;4794292;58;21051;-41
2021/05/25 17:52:21;;;;;;;33.08;29.37;;;23.80;61.00;;;;;;4796189;54;20991;-42
2021/05/25 17:57:22;;;;;;;31.60;28.20;;;23.80;61.00;;;;;;4805252;54;21067;-40
2021/05/25 18:02:23;;;;;;;32.38;28.48;;;23.80;60.90;;;;;;4812851;54;21465;-39
2021/05/25 18:07:28;;;;;;;31.08;26.40;;;23.90;60.90;;;;;;4799547;54;21015;-42
2021/05/25 18:12:29;;;;;;;30.58;27.25;;;23.80;60.90;;;;;;4815968;54;21548;-36
2021/05/25 18:17:30;;;;;;;32.72;27.23;;;23.80;60.80;;;;;;4793956;58;21011;-35
2021/05/25 18:22:31;;;;;;;29.37;25.70;;;23.80;60.80;;;;;;4847594;54;20979;-37
2021/05/25 18:27:32;;;;;;;30.35;26.92;;;23.80;60.80;;;;;;4864031;54;21496;-38
2021/05/25 18:38:21;;;;;;;29.42;25.60;;;23.80;60.70;;;;;;4822252;54;21101;-35
2021/05/25 18:43:25;;;;;;;30.90;25.87;;;23.80;60.60;;;;;;4798924;54;21027;-39
2021/05/25 18:48:27;;;;;;;28.50;25.25;;;23.80;60.60;;;;;;4829567;54;20995;-38
2021/05/25 18:53:27;;;;;;;31.08;26.62;;;23.80;60.60;;;;;;4794857;58;21477;-40
2021/05/25 19:03:50;;;;;;;30.65;25.62;;;23.80;60.40;;;;;;4793826;58;21520;-38
2021/05/25 19:08:53;;;;;;;29.15;24.27;;;23.80;60.30;;;;;;4803075;54;21092;-37
2021/05/25 19:13:54;;;;;;;28.48;25.15;;;23.80;60.30;;;;;;4804383;54;21430;-37
2021/05/25 19:19:00;;;;;;;25.73;22.90;;;23.80;60.20;;;;;;4820223;54;21000;-39
2021/05/25 19:29:11;;;;;;;24.58;21.90;;;23.70;60.00;;;;;;4808235;54;21492;-40
2021/05/25 19:34:13;;;;;;;26.25;22.62;;;23.70;59.90;;;;;;4808150;54;21058;-38
2021/05/25 19:39:13;;;;;;;24.95;22.33;;;23.70;59.90;;;;;;4810812;54;21007;-41
2021/05/25 19:44:15;;;;;;;26.45;22.37;;;23.70;59.80;;;;;;4799229;54;21396;-37
2021/05/25 19:49:16;;;;;;;25.83;21.98;;;23.70;59.70;;;;;;4794101;58;21228;-39
2021/05/25 19:54:17;;;;;;;23.95;21.05;;;23.70;59.70;;;;;;4807308;54;20991;-35
2021/05/25 19:59:18;;;;;;;22.87;20.45;;;23.70;59.60;;;;;;4822479;54;21023;-40
2021/05/25 20:04:19;;;;;;;26.67;23.05;;;23.70;59.50;;;;;;4817714;54;21529;-38
2021/05/25 20:09:20;;;;;;;24.12;21.48;;;23.70;59.40;;;;;;4862940;54;20967;-37
2021/05/25 20:14:21;;;;;;;25.90;21.05;;;23.70;59.30;;;;;;4806947;54;21541;-37
2021/05/25 20:19:22;;;;;;;23.30;20.40;;;23.70;59.20;;;;;;4797940;54;21035;-40
2021/05/25 20:24:23;;;;;;;23.12;20.62;;;23.70;59.10;;;;;;4864625;54;20999;-39
2021/05/25 20:29:24;;;;;;;22.45;20.08;;;23.70;59.00;;;;;;4809314;54;21053;-37
2021/05/25 20:39:44;;;;;;;21.05;18.80;;;23.70;58.90;;;;;;4861893;54;21121;-38
2021/05/25 20:44:45;;;;;;;21.65;19.45;;;23.70;58.70;;;;;;4793707;58;21788;-33
2021/05/25 20:49:46;;;;;;;21.40;19.20;;;23.70;58.60;;;;;;4799627;54;20996;-40
2021/05/25 20:54:47;;;;;;;20.48;18.37;;;23.60;58.60;;;;;;4832731;54;20999;-42
2021/05/25 20:59:51;;;;;;;20.40;18.10;;;23.70;58.50;;;;;;4803724;54;21078;-37
2021/05/25 21:04:51;;;;;;;20.35;18.17;;;23.60;58.30;;;;;;4812431;54;21003;-40
2021/05/25 21:09:52;;;;;;;19.60;17.58;;;23.60;58.30;;;;;;4802625;54;20999;-39
2021/05/25 21:14:53;;;;;;;18.85;16.80;;;23.60;58.20;;;;;;4797574;54;21046;-39
2021/05/25 21:19:54;;;;;;;19.48;17.37;;;23.60;58.10;;;;;;4805313;54;21059;-40
2021/05/25 21:24:55;;;;;;;19.05;17.05;;;23.70;58.10;;;;;;4794359;58;21002;-39
2021/05/25 21:29:55;;;;;;;18.92;16.92;;;23.60;58.00;;;;;;4829379;54;20987;-39
2021/05/25 21:34:59;;;;;;;18.52;16.50;;;23.60;58.00;;;;;;4796725;54;21022;-46
2021/05/25 21:40:01;;;;;;;18.75;16.83;;;23.60;58.60;;;;;;4807185;54;21453;-39
2021/05/25 21:45:04;;;;;;;17.45;15.60;;;23.60;57.90;;;;;;4800129;54;21031;-39
2021/05/25 21:50:06;;;;;;;18.90;16.92;;;23.60;57.90;;;;;;4799971;54;20984;-38
2021/05/25 21:55:08;;;;;;;18.23;16.33;;;23.60;57.80;;;;;;4821459;54;20992;-39
2021/05/25 22:00:14;;;;;;;17.67;15.73;;;23.60;57.80;;;;;;4819674;54;20971;-39
2021/05/25 22:05:15;;;;;;;18.02;15.25;;;23.60;57.80;;;;;;4810727;54;21565;-41
2021/05/25 22:10:17;;;;;;;18.50;16.35;;;23.60;57.80;;;;;;4850407;54;21094;-39
2021/05/25 22:15:17;;;;;;;16.65;14.93;;;23.60;57.80;;;;;;4837568;54;21337;-39
2021/05/25 22:20:18;;;;;;;16.60;14.75;;;23.60;57.70;;;;;;4847670;54;21483;-38
2021/05/25 22:25:21;;;;;;;16.30;14.55;;;23.60;57.70;;;;;;4810799;54;21114;-39
2021/05/25 22:30:23;;;;;;;16.15;14.32;;;23.60;57.70;;;;;;4802301;54;21574;-37
2021/05/25 22:35:24;;;;;;;16.45;14.80;;;23.60;57.70;;;;;;4824240;54;21047;-40
2021/05/25 22:40:25;;;;;;;15.20;13.60;;;23.60;57.70;;;;;;4828576;54;21059;-36
2021/05/25 22:45:26;;;;;;;16.77;15.07;;;23.60;57.60;;;;;;4799010;54;22253;-36
2021/05/25 22:50:27;;;;;;;15.52;13.93;;;23.60;58.30;;;;;;4808609;54;21070;-38
2021/05/25 22:55:28;;;;;;;15.55;13.95;;;23.60;57.60;;;;;;4809521;54;21526;-39
2021/05/25 23:00:30;;;;;;;15.55;13.90;;;23.60;57.60;;;;;;4836887;54;21102;-36
2021/05/25 23:05:31;;;;;;;16.17;14.48;;;23.60;57.60;;;;;;4834590;54;21517;-39
2021/05/25 23:10:32;;;;;;;15.35;13.55;;;23.60;57.60;;;;;;4811479;54;21063;-38
2021/05/25 23:15:32;;;;;;;15.63;14.02;;;23.60;57.50;;;;;;4794027;58;21011;-39
2021/05/25 23:20:33;;;;;;;15.02;13.50;;;23.60;57.50;;;;;;4794523;58;20999;-40
2021/05/25 23:25:37;;;;;;;14.98;12.75;;;23.60;57.50;;;;;;4808717;54;21019;-37
2021/05/25 23:30:39;;;;;;;15.93;13.80;;;23.60;57.50;;;;;;4794376;58;21050;-39
2021/05/25 23:35:39;;;;;;;15.00;13.45;;;23.60;57.50;;;;;;4799224;54;21613;-39
2021/05/25 23:40:40;;;;;;;14.23;12.82;;;23.60;57.50;;;;;;4805282;54;21054;-40
2021/05/25 23:45:41;;;;;;;15.10;13.60;;;23.60;57.40;;;;;;4793438;55;21078;-37
2021/05/25 23:50:42;;;;;;;14.85;13.35;;;23.60;57.40;;;;;;4794195;58;20998;-42
2021/05/25 23:55:43;;;;;;;14.87;13.38;;;23.60;57.40;;;;;;4830170;54;21477;-44
